Reno (UNR), Valley Road, Nevada Weather observations

Data are for observation ending at time listed.
 Day   Time    Ave.   Ave.  Ave.  Vector   Max.    Total    Solar   Rl      Baro.   Ave.  
  of    of     Air    Rel.  Wind   Wind    Wind   Precip.   Rad.    in      Pres.   Soil  
Year   Day     Temp.  Hum.  Speed  Dir.    Gust                                     Temp. 
2016   (PST)    F      %     mph   deg.    mph      in.     W/m2    W/m2     mb.     F   
-----------------------------------------------------------------------------------------
  39   14:30   54.7    47   10.2    43     16.4     0.00     481     305    865.0   40.8
  39   14:40   54.8    46    9.0    68     14.9     0.00     462     308    864.9   40.9
  39   14:50   54.8    47    8.3    60     14.3     0.00     439     307    864.9   41.1
  39   15:00   54.6    46    8.3    66     15.3     0.00     415     306    864.9   41.2
  39   15:10   54.9    46    7.4    87     13.6     0.00     390     306    864.9   41.3
  39   15:20   55.1    45    6.4    79     14.6     0.00     365     305    864.8   41.5
  39   15:30   54.7    45    9.1    72     15.3     0.00     339     307    864.7   41.6
  39   15:40   54.5    45    8.5    67     13.9     0.00     311     307    864.8   41.7
  39   15:50   54.9    45    6.9    90     11.9     0.00     282     304    864.8   41.8
  39   16:00   54.7    45    7.1    87     12.4     0.00     253     305    865.0   41.9
  39   16:10   54.4    45    7.7    84     13.9     0.00     223     304    865.0   42.0
  39   16:20   54.3    46    6.6    81     10.2     0.00     194     302    865.2   42.1
  39   16:30   54.1    47    6.7    90     12.8     0.00     167     300    865.3   42.2
  39   16:40   53.2    48    7.7    92     12.8     0.00     138     296    865.4   42.2
  39   16:50   52.9    47    7.2    86     11.7     0.00     105     294    865.6   42.3
  39   17:00   52.3    48    6.9    87     12.9     0.00      68     291    865.7   42.3
  39   17:10   51.6    48    6.1    91     12.7     0.00      36     289    866.0   42.4
  39   17:20   50.4    50    6.4    89     12.2     0.00       9     289    866.2   42.4
  39   17:30   49.6    52    5.2    80      9.9     0.00       5     285    866.5   42.4
  39   17:40   48.8    55    3.8    61      7.2     0.00       2     287    866.7   42.4
  39   17:50   48.0    56    3.2    57      7.3     0.00       1     285    867.0   42.4
  39   18:00   47.6    56    4.5    59      8.1     0.00       0     282    867.2   42.4
  39   18:10   47.5    57    4.4    65      7.6     0.00       0     282    867.4   42.4
  39   18:20   47.2    57    3.8    54      8.2     0.00       0     282    867.6   42.4
  39   18:30   46.6    57    2.3    65      5.3     0.00       0     278    867.8   42.3
  39   18:40   46.1    58    3.5    48      5.6     0.00       0     277    867.9   42.3
  39   18:50   45.1    59    3.3    23      5.2     0.00       0     274    868.0   42.2
  39   19:00   44.1    60    3.0    35      5.2     0.00       0     275    868.2   42.2
  39   19:10   44.1    59    3.5    23      5.2     0.00       0     275    868.4   42.1
  39   19:20   43.3    61    1.7    16      4.3     0.00       0     276    868.6   42.1
  39   19:30   43.1    62    2.2   351      3.1     0.00       0     274    868.8   42.0
  39   19:40   42.3    63    3.4    30      5.9     0.00       0     274    869.0   42.0
  39   19:50   42.8    63    1.3   201      3.5     0.00       0     272    869.2   41.9
  39   20:00   43.1    63    1.4   215      2.7     0.00       0     274    869.3   41.8
  39   20:10   42.0    66    0.0   177      0.7     0.00       0     270    869.5   41.7
  39   20:20   40.2    72    1.7   342      2.6     0.00       0     266    869.6   41.7
  39   20:30   39.0    74    1.8   286      3.0     0.00       0     267    869.8   41.6
  39   20:40   38.8    75    2.1   332      3.4     0.00       0     268    869.9   41.5
  39   20:50   37.3    80    0.8   292      1.9     0.00       0     267    870.0   41.4
  39   21:00   37.7    78    2.2   332      3.3     0.00       0     266    870.1   41.3
  39   21:10   37.3    78    0.4   302      2.7     0.00       0     266    870.2   41.2
  39   21:20   36.8    80    0.1   301      1.6     0.00       0     262    870.4   41.2
  39   21:30   36.2    81    0.6   292      1.8     0.00       0     262    870.5   41.1
  39   21:40   35.8    83    1.5   323      2.9     0.00       0     259    870.6   41.0
  39   21:50   35.2    85    3.1   326      4.5     0.00       0     261    870.7   40.9
  39   22:00   34.9    85    1.6   323      4.2     0.00       0     261    870.7   40.8
  39   22:10   34.8    86    0.0     0      0.0     0.00       0     260    870.7   40.7
  39   22:20   35.0    85    1.0   321      2.7     0.00       0     261    870.8   40.6
  39   22:30   34.2    86    0.0   285      1.1     0.00       0     263    870.9   40.5
  39   22:40   34.1    87    1.5   291      2.6     0.00       0     262    871.0   40.4
  39   22:50   34.5    86    0.7   300      2.3     0.00       0     258    871.1   40.4
  39   23:00   34.2    87    0.6   328      3.1     0.00       0     257    871.2   40.3
  39   23:10   33.7    88    0.4   324      2.2     0.00       0     258    871.1   40.2
  39   23:20   33.6    88    0.2   317      2.3     0.00       0     262    871.1   40.1
  39   23:30   33.0    88    0.0   116      0.7     0.00       0     263    871.1   40.0
  39   23:40   33.0    90    0.0     0      0.0     0.00       0     261    871.1   40.0
  39   23:50   32.9    90    0.0     0      0.0     0.00       0     260    871.2   39.9
  40    0:00   33.4    89    1.9   271      3.5     0.00       0     259    871.2   39.8
  40    0:10   33.5    89    2.0   240      3.6     0.00       0     255    871.3   39.7
  40    0:20   33.3    88    0.0     0      0.0     0.00       0     255    871.2   39.7
  40    0:30   32.6    89    0.0     0      0.0     0.00       0     259    871.2   39.6
  40    0:40   31.9    90    0.0     0      0.0     0.00       0     259    871.2   39.5
  40    0:50   31.7    91    0.0     0      0.0     0.00       0     259    871.1   39.5
  40    1:00   31.4    92    0.0     0      0.0     0.00       0     259    871.2   39.4
  40    1:10   31.1    92    0.1   253      1.5     0.00       0     255    871.3   39.3
  40    1:20   31.2    93    0.0   263      0.5     0.00       0     255    871.3   39.3
  40    1:30   30.8    93    0.9   316      3.5     0.00       0     258    871.3   39.2
  40    1:40   31.1    93    0.0     0      0.0     0.00       0     261    871.2   39.1
  40    1:50   31.5    93    1.4   253      3.3     0.00       0     262    871.2   39.1
  40    2:00   31.4    91    0.7   262      2.3     0.00       0     260    871.2   39.0
  40    2:10   30.7    92    0.0     0      0.0     0.00       0     262    871.2   38.9
  40    2:20   30.5    93    0.0     0      0.0     0.00       0     264    871.1   38.9
  40    2:30   30.6    94    0.8   249      2.8     0.00       0     263    871.1   38.8
  40    2:40   30.7    93    0.1   260      1.8     0.00       0     263    871.2   38.8
  40    2:50   30.6    93    0.0     0      0.0     0.00       0     263    871.1   38.7
  40    3:00   30.1    93    0.0     0      0.0     0.00       0     261    871.1   38.6
  40    3:10   29.8    94    0.0     0      0.0     0.00       0     259    871.1   38.6
  40    3:20   29.5    94    0.0     0      0.0     0.00       0     261    871.0   38.5
  40    3:30   29.0    94    0.0     0      0.0     0.00       0     266    871.1   38.5
  40    3:40   28.9    95    0.0     0      0.0     0.00       0     264    871.2   38.4
  40    3:50   28.8    96    0.0     0      0.0     0.00       0     264    871.2   38.4
  40    4:00   28.6    96    0.0     0      0.0     0.00       0     264    871.2   38.3
  40    4:10   28.6    97    0.0     0      0.0     0.00       0     272    871.2   38.3
  40    4:20   28.4    97    0.0     0      0.0     0.00       0     272    871.3   38.2
  40    4:30   28.6    97    0.0     0      0.0     0.00       0     278    871.3   38.2
  40    4:40   28.5    97    0.0     0      0.0     0.00       0     274    871.3   38.1
  40    4:50   28.5    97    0.0     0      0.0     0.00       0     272    871.3   38.1
  40    5:00   29.2    97    0.1   244      1.7     0.00       0     276    871.3   38.0
  40    5:10   29.2    96    0.0     0      0.0     0.00       0     276    871.2   38.0
  40    5:20   29.2    96    0.2   262      2.4     0.00       0     276    871.2   37.9
  40    5:30   29.3    95    0.0     0      0.0     0.00       0     275    871.1   37.9
  40    5:40   29.4    95    0.0     0      0.0     0.00       0     278    871.2   37.8
  40    5:50   28.7    94    0.0     0      0.0     0.00       0     283    871.2   37.8
  40    6:00   28.1    95    0.0     0      0.0     0.00       0     280    871.2   37.7
  40    6:10   28.1    96    0.0     0      0.0     0.00       0     280    871.1   37.7
  40    6:20   27.8    96    0.0     0      0.0     0.00       0     280    871.2   37.7
  40    6:30   27.4    96    0.0     0      0.0     0.00       0     280    871.3   37.6
  40    6:40   27.6    97    0.0     0      0.0     0.00       0     281    871.3   37.6
  40    6:50   27.2    97    0.0     0      0.0     0.00       1     286    871.4   37.5
  40    7:00   26.7    97    0.0     0      0.0     0.00       3     284    871.5   37.5
  40    7:10   27.2    98    0.0     0      0.0     0.00       7     289    871.4   37.4
  40    7:20   27.7    98    0.0     0      0.0     0.00      21     285    871.5   37.4
  40    7:30   29.3    95    0.0     0      0.0     0.00      48     286    871.5   37.4
  40    7:40   30.7    94    0.0     0      0.0     0.00      79     293    871.4   37.3
  40    7:50   33.0    90    0.0     0      0.0     0.00     114     295    871.3   37.3
  40    8:00   36.8    83    0.0     0      0.0     0.00     146     288    871.2   37.2
  40    8:10   40.5    71    0.0     0      0.0     0.00     168     287    870.9   37.2
  40    8:20   41.5    67    0.0     0      0.0     0.00     189     275    870.6   37.2
  40    8:30   40.9    68    0.0     0      0.0     0.00     215     262    870.3   37.1
  40    8:40   41.6    68    0.0     0      0.0     0.00     247     264    870.0   37.1
  40    8:50   42.1    67    0.2    30      2.2     0.00     275     265    869.6   37.1
  40    9:00   41.4    68    0.0     0      0.0     0.00     305     269    869.2   37.0
  40    9:10   43.8    64    0.0     0      0.0     0.00     334     272    869.0   37.0
  40    9:20   46.1    60    0.0     0      0.0     0.00     359     274    868.6   37.0
  40    9:30   47.4    56    0.0     0      0.0     0.00     384     280    868.2   36.9
  40    9:40   46.2    59    0.0     0      0.0     0.00     412     285    867.8   36.9
  40    9:50   46.2    59    0.0     0      0.0     0.00     437     285    867.5   36.9
  40   10:00   47.4    58    0.3    28      2.9     0.00     461     288    867.1   36.9
  40   10:10   47.6    57    0.2    21      3.5     0.00     480     290    866.8   36.9
  40   10:20   46.8    59    0.5    39      4.1     0.00     500     292    866.5   36.9
  40   10:30   48.2    56    0.9    52      4.2     0.00     515     292    866.1   37.0
  40   10:40   47.4    59    0.9    54      3.4     0.00     533     292    865.8   37.0
  40   10:50   47.5    58    1.5    88      5.0     0.00     551     285    865.5   37.1
  40   11:00   47.4    59    1.7   133      5.4     0.00     563     292    865.3   37.2
  40   11:10   47.9    59    1.5    81      4.7     0.00     577     294    865.0   37.3
  40   11:20   49.3    56    1.3    54      5.4     0.00     590     299    864.8   37.4
  40   11:30   49.3    57    1.0    28      4.9     0.00     600     300    864.6   37.6
  40   11:40   49.2    56    0.8   292      4.1     0.00     609     302    864.4   37.7
  40   11:50   50.8    54    0.5    38      3.3     0.00     616     303    864.2   37.8
  40   12:00   52.0    52    1.1    22      3.8     0.00     619     306    863.9   38.0
  40   12:10   51.5    52    0.5   249      2.8     0.00     621     308    863.6   38.2
  40   12:20   52.7    51    1.0   113      3.6     0.00     625     309    863.2   38.3
  40   12:30   53.3    50    1.6   162      4.8     0.00     625     310    862.8   38.5
  40   12:40   53.6    48    2.2   120      7.4     0.00     626     312    862.3   38.7
  40   12:50   54.2    49    2.7   129      8.3     0.00     627     313    861.9   38.9
  40   13:00   53.7    49    3.6   112      8.3     0.00     550     311    861.6   39.1
  40   13:10   53.8    48    4.0   129      8.1     0.00     578     310    861.4   39.3
  40   13:20   54.8    47    1.6   124      5.4     0.00     547     312    861.1   39.5
  40   13:30   55.5    45    2.4   218      5.8     0.00     545     316    860.9   39.7
  40   13:40   55.4    45    2.9   254      5.4     0.00     569     315    860.7   39.9
  40   13:50   56.0    44    1.8   264      5.4     0.00     580     318    860.5   40.1
  40   14:00   57.2    43    2.2   213      5.2     0.00     559     320    860.2   40.3
  40   14:10   57.8    42    1.6   133      3.6     0.00     558     319    859.8   40.5
  40   14:20   58.7    40    1.9   138      5.2     0.00     533     322    859.5   40.7

Return to Reno (UNR), Nevada graphs page.


Western Regional Climate Center,wrcc@dri.edu